Latest Coastal Weather Observations for Low Head

IDV60701

Issued at 11:01 pm EST Sunday 26 April 2015 (issued every 10 minutes, with the page automatically refreshed every 10 minutes)

About coastal observations | Map of coastal stations | Coastal observations for VIC | Marine services | Other Formats
Station Details ID: 091293 Name: LOW HEAD Lat: -41.05 Lon: 146.79 Height: 3.0 m
Data from the previous 72 hours. | See also: Recent months at Low Head
Date/Time
EST
Temp

°C
Wind Pressure Rain
since 9am
mm
Weather Cloud Vis
km
Sea
Height
m
Swell
Dir
 
Speed
knots
Gust
knots
hPa Trend Height
m
Period
s
Dir
26/11:00pm 11.0 SW 6 8 1015.2 - 0.0 - - - - - - -
26/10:30pm 11.5 SW 12 15 1015.0 - 0.0 - - - - - - -
26/10:00pm 11.3 SW 9 12 1015.0 - 0.0 - - - - - - -
26/09:30pm 11.3 SSW 10 14 1014.8 - 0.0 - - - - - - -
26/09:25pm 11.7 SW 13 17 1014.9 - 0.0 - - - - - - -
26/09:00pm 12.4 WSW 20 23 1014.4 - 0.0 - - - - - - -
26/08:30pm 12.8 WSW 18 20 1014.1 - 0.0 - - - - - - -
26/08:00pm 12.9 WSW 20 23 1014.0 - 0.0 - - - - - - -
26/07:30pm 13.4 WSW 18 22 1014.0 - 0.0 - - - - - - -
26/07:00pm 13.4 WSW 17 20 1014.0 - 0.0 - - - - - - -
26/06:30pm 13.6 WSW 18 22 1013.7 - 0.0 - - - - - - -
26/06:00pm 13.9 WSW 17 19 1013.4 - 0.0 - - - - - - -
26/05:30pm 14.3 WSW 21 24 1013.0 - 0.0 - - - - - - -
26/05:00pm 14.9 WSW 21 24 1012.7 - 0.0 - - - - - - -
26/04:30pm 15.2 WSW 19 22 1012.4 - 0.0 - - - - - - -
26/04:00pm 15.3 W 20 24 1012.1 - 0.0 - - - - - - -
26/03:30pm 15.6 W 18 21 1012.0 - 0.0 - - - - - - -
26/03:00pm 15.5 W 20 24 1011.9 - 0.0 - - - - - - -
26/02:30pm 15.6 W 13 17 1011.9 - 0.0 - - - - - - -
26/02:00pm 15.2 W 16 19 1012.0 - 0.0 - - - - - - -
26/01:30pm 15.3 W 13 17 1012.1 - 0.0 - - - - - - -
26/01:00pm 14.9 W 11 14 1012.5 - 0.0 - - - - - - -
26/12:30pm 14.1 WSW 9 14 1012.7 - 0.0 - - - - - - -
26/12:00pm 13.2 WSW 8 11 1012.9 - 0.0 - - - - - - -
26/11:30am 12.9 W 6 8 1013.3 - 0.0 - - - - - - -
26/11:00am 12.2 S 6 9 1013.5 - 0.0 - - - - - - -
26/10:30am 12.6 SSE 8 11 1013.4 - 0.0 - - - - - - -
26/10:00am 11.6 S 10 13 1013.7 - 0.0 - - - - - - -
26/09:30am 11.0 S 11 15 1013.7 - 0.0 - - - - - - -
26/09:00am 10.9 S 14 17 1013.6 - 22.6 - - - - - - -
26/08:30am 10.9 S 15 19 1013.5 - 22.6 - - - - - - -
26/08:00am 10.9 S 13 17 1013.2 - 22.6 - - - - - - -
26/07:30am 10.8 SSW 12 14 1012.9 - 22.6 - - - - - - -
26/07:00am 11.1 S 13 17 1012.3 - 22.6 - - - - - - -
26/06:30am 10.8 S 12 15 1012.0 - 22.6 - - - - - - -
26/06:00am 11.1 SSW 13 16 1012.0 - 22.6 - - - - - - -
26/05:30am 11.3 S 13 16 1011.8 - 22.6 - - - - - - -
26/05:00am 11.0 S 13 15 1011.7 - 22.6 - - - - - - -
26/04:30am 11.4 S 11 13 1011.7 - 22.6 - - - - - - -
26/04:00am 11.3 S 9 11 1011.7 - 22.6 - - - - - - -
26/03:30am 10.5 SE 5 8 1011.7 - 22.6 - - - - - - -
26/03:00am 10.7 SSE 9 11 1011.9 - 22.4 Recent precip. - - - - - -
26/02:30am 10.6 SSE 9 11 1011.8 - 22.4 - - - - - - -
26/02:00am 11.0 S 10 11 1012.1 - 22.2 - - - - - - -
26/01:30am 11.2 S 11 15 1012.2 - 22.2 - - - - - - -
26/01:00am 10.9 SSE 9 12 1011.9 - 22.2 - - - - - - -
26/12:30am 11.1 S 10 14 1012.0 - 22.0 - - - - - - -
26/12:00am 11.0 SE 7 11 1011.8 - 21.8 Rain - - - - - -
 
Date/Time
EST
Temp

°C
Wind Pressure Rain
since 9am
mm
Weather Cloud Vis
km
Sea
Height
m
Swell
Dir
 
Speed
knots
Gust
knots
hPa Trend Height
m
Period
s
Dir
25/11:30pm 11.0 SSE 9 13 1011.7 - 21.4 - - - - - - -
25/11:00pm 11.2 SSE 12 16 1011.7 - 21.4 - - - - - - -
25/10:30pm 12.2 S 12 16 1011.8 - 21.0 - - - - - - -
25/10:00pm 12.4 SSE 10 13 1011.7 - 20.4 - - - - - - -
25/09:30pm 12.7 SSE 7 11 1011.6 - 20.0 - - - - - - -
25/09:00pm 12.2 SE 6 7 1011.5 - 20.0 Recent precip. - - - - - -
25/08:30pm 12.4 ESE 5 7 1011.3 - 20.0 - - - - - - -
25/08:00pm 12.6 E 4 5 1011.2 - 17.8 - - - - - - -
25/07:30pm 13.1 SSE 4 8 1011.0 - 14.0 - - - - - - -
25/07:00pm 14.4 SSW 8 13 1010.8 - 2.8 - - - - - - -
25/06:30pm 15.9 N 10 11 1010.2 - 0.0 - - - - - - -
25/06:00pm 15.9 NNW 11 13 1009.9 - 0.0 - - - - - - -
25/05:30pm 15.8 ESE 5 5 1009.4 - 0.0 - - - - - - -
25/05:00pm 16.0 SSE 4 5 1009.0 - 0.0 - - - - - - -
25/04:30pm 16.6 SSW 5 6 1008.8 - 0.0 - - - - - - -
25/04:00pm 16.8 S 6 7 1008.5 - 0.0 - - - - - - -
25/03:30pm 16.9 S 5 6 1008.4 - 0.0 - - - - - - -
25/03:00pm 17.1 SSE 6 7 1008.2 - 0.0 - - - - - - -
25/02:30pm 17.2 SSE 7 8 1008.1 - 0.0 - - - - - - -
25/02:00pm 17.3 SSE 8 11 1007.9 - 0.0 - - - - - - -
25/01:30pm 17.4 SSE 8 11 1007.8 - 0.0 - - - - - - -
25/01:00pm 17.3 SSE 11 15 1007.8 - 0.0 - - - - - - -
25/12:30pm 16.9 SSE 11 15 1007.9 - 0.0 - - - - - - -
25/12:00pm 16.7 SSE 14 20 1008.1 - 0.0 - - - - - - -
25/11:30am 16.0 SSE 12 18 1008.1 - 0.0 - - - - - - -
25/11:00am 15.7 SSE 14 19 1008.1 - 0.0 - - - - - - -
25/10:30am 14.3 SSE 16 21 1008.0 - 0.0 - - - - - - -
25/10:00am 13.0 SSE 13 18 1008.0 - 0.0 - - - - - - -
25/09:30am 12.1 SSE 12 16 1007.9 - 0.0 - - - - - - -
25/09:00am 11.9 SSE 11 16 1007.9 - 11.6 - - - - - - -
25/08:30am 12.0 SSE 14 18 1007.6 - 11.6 - - - - - - -
25/08:00am 12.0 SSE 12 15 1007.4 - 11.6 - - - - - - -
25/07:30am 11.7 SSE 13 18 1006.9 - 11.6 - - - - - - -
25/07:00am 11.3 SSE 12 16 1006.4 - 11.6 - - - - - - -
25/06:30am 12.1 S 13 16 1005.9 - 11.4 - - - - - - -
25/06:00am 11.8 SSE 10 13 1005.3 - 11.4 - - - - - - -
25/05:30am 12.3 SSE 11 13 1005.0 - 11.4 - - - - - - -
25/05:00am 11.8 SSE 8 10 1004.9 - 11.4 - - - - - - -
25/04:30am 11.9 SSE 8 10 1004.6 - 11.4 - - - - - - -
25/04:00am 11.8 SSE 7 9 1004.5 - 11.4 - - - - - - -
25/03:30am 12.4 S 8 9 1004.4 - 11.4 - - - - - - -
25/03:00am 12.5 S 6 7 1004.2 - 11.4 - - - - - - -
25/02:30am 12.4 SSE 7 8 1004.1 - 11.4 - - - - - - -
25/02:00am 13.0 SSE 7 9 1004.1 - 11.4 - - - - - - -
25/01:30am 12.5 SSE 8 9 1004.1 - 11.4 - - - - - - -
25/01:00am 12.7 SSE 6 7 1004.0 - 11.4 - - - - - - -
25/12:30am 12.9 SSE 7 9 1004.0 - 11.4 - - - - - - -
25/12:00am 13.3 SSE 5 6 1004.0 - 11.4 - - - - - - -
 
Date/Time
EST
Temp

°C
Wind Pressure Rain
since 9am
mm
Weather Cloud Vis
km
Sea
Height
m
Swell
Dir
 
Speed
knots
Gust
knots
hPa Trend Height
m
Period
s
Dir
24/11:30pm 14.0 SW 5 6 1003.7 - 11.4 - - - - - - -
24/11:00pm 14.1 WSW 5 7 1003.5 - 11.4 - - - - - - -
24/10:30pm 13.9 W 5 7 1003.7 - 11.4 - - - - - - -
24/10:00pm 13.5 SSW 4 4 1003.5 - 11.4 - - - - - - -
24/09:30pm 13.7 SW 5 8 1003.6 - 11.4 - - - - - - -
24/09:00pm 13.5 S 7 8 1003.1 - 11.2 - - - - - - -
24/08:30pm 13.5 SW 8 9 1003.0 - 11.2 - - - - - - -
24/08:00pm 13.3 SW 9 11 1002.6 - 11.2 - - - - - - -
24/07:30pm 13.4 S 12 16 1001.9 - 11.2 - - - - - - -
24/07:00pm 13.5 S 14 17 1001.4 - 11.2 - - - - - - -
24/06:30pm 13.4 S 13 15 1001.6 - 11.0 - - - - - - -
24/06:00pm 13.6 SSW 9 10 1001.8 - 11.0 Recent precip. - - - - - -
24/05:30pm 13.4 SSW 9 11 1001.8 - 10.8 - - - - - - -
24/05:00pm 13.5 S 9 11 1001.8 - 9.8 - - - - - - -
24/04:30pm 13.7 SSW 10 11 1001.5 - 7.8 - - - - - - -
24/04:00pm 13.8 S 13 16 1001.1 - 7.0 - - - - - - -
24/03:30pm 13.5 SSE 11 14 1001.4 - 7.0 - - - - - - -
24/03:00pm 13.6 S 11 13 1001.5 - 6.2 Rain - - - - - -
24/02:30pm 13.9 S 11 14 1001.5 - 4.0 - - - - - - -
24/02:00pm 13.8 S 12 15 1001.9 - 2.6 - - - - - - -
24/01:30pm 14.1 S 12 14 1002.0 - 1.0 - - - - - - -
24/01:00pm 14.1 S 11 14 1002.2 - 1.0 - - - - - - -
24/12:30pm 14.0 S 12 15 1002.6 - 1.0 - - - - - - -
24/12:00pm 13.9 S 12 14 1003.1 - 1.0 - - - - - - -
24/11:30am 13.5 SSE 10 14 1003.5 - 1.0 - - - - - - -
24/11:00am 13.3 SSE 10 15 1003.9 - 1.0 - - - - - - -
24/10:30am 13.1 SSE 11 13 1003.9 - 1.0 - - - - - - -
24/10:00am 12.8 SSE 11 13 1004.2 - 0.4 - - - - - - -
24/09:30am 12.4 SSE 11 14 1004.6 - 0.2 - - - - - - -
24/09:00am 12.5 S 12 14 1004.9 - 4.2 Recent precip. - - - - - -
24/08:30am 12.4 S 10 13 1005.1 - 4.0 - - - - - - -
24/08:00am 12.3 S 10 13 1005.3 - 3.8 - - - - - - -
24/07:30am 12.3 S 11 14 1005.2 - 3.4 - - - - - - -
24/07:00am 12.4 S 11 13 1005.1 - 3.0 - - - - - - -
24/06:30am 12.8 S 10 13 1005.2 - 2.4 - - - - - - -
24/06:00am 12.6 S 10 12 1005.4 - 2.2 Rain - - - - - -
24/05:30am 12.5 SSE 9 12 1005.5 - 1.8 - - - - - - -
24/05:00am 12.5 SSE 9 12 1005.7 - 1.0 - - - - - - -
24/04:30am 12.8 SSE 10 13 1006.0 - 0.4 - - - - - - -
24/04:00am 13.3 SSE 10 12 1006.3 - 0.0 - - - - - - -
24/03:30am 13.3 SSE 9 11 1006.7 - 0.0 - - - - - - -
24/03:00am 13.5 SSE 10 12 1007.1 - 0.0 - - - - - - -
24/02:30am 13.5 SSE 12 14 1007.5 - 0.0 - - - - - - -
24/02:00am 13.4 SSE 11 14 1007.8 - 0.0 - - - - - - -
24/01:30am 13.5 SSE 11 14 1008.5 - 0.0 - - - - - - -
24/01:00am 13.4 SSE 11 14 1008.9 - 0.0 - - - - - - -
24/12:30am 13.5 SSE 11 14 1009.3 - 0.0 - - - - - - -
24/12:00am 13.7 SSE 10 14 1009.7 - 0.0 - - - - - - -
 
Date/Time
EST
Temp

°C
Wind Pressure Rain
since 9am
mm
Weather Cloud Vis
km
Sea
Height
m
Swell
Dir
 
Speed
knots
Gust
knots
hPa Trend Height
m
Period
s
Dir
23/11:30pm 14.0 SSE 11 13 1010.2 - 0.0 - - - - - - -

Other Formats:

Comma delimited format used in spreadsheet applications
http://www.bom.gov.au/fwo/IDV60701/IDV60701.95964.axf

JavaScript Object Notation format (JSON) in row-major order
http://www.bom.gov.au/fwo/IDV60701/IDV60701.95964.json